Hauptseite
METAR-TAF:

METAR-TAF

Flughäfen :

Flughafen Engadin

St. Moritz, Schweiz

Breite: 46-32-03N, Länge: 9-53-03E, Höhe: 1707 m

Beobachtung

Neuester Wetterbericht von vor 15 Minuten, um 20:50 UTC
Wind 1 kt aus unterschiedlichen Richtungen
Temperatur -10°C
Luftfeuchtigkeit 85%
Luftdruck 1015 hPa
Sichtweite 10 km oder mehr
Durchbrochene Bewölkung in der Höhe von 2900 ft

METAR: LSZS 162050Z AUTO VRB01KT 9999 BKN029 M10/M12 Q1015

Zeit: 22:05 (21:05 UTC)

Prognose

Neuester Wetterbericht von vor 1 Stunde und 9 Minuten, um 19:56 UTC
Gültige Prognose vom 16 um 19 UTC bis 16 um 24 UTC
Wind 4 kt aus Süd
Sichtweite 10 km oder mehr
Leicht bewölkt in der Höhe von 2200 ft
Aufgelockert bewölkt in der Höhe von 3200 ft
Wahrscheinlichkeit 30%
vom 16 um 21 UTC bis 16 um 24 UTC
Sichtweite: 4500 m
feuchter Dunst

TAF: LSZS 161956Z 1619/1624 19004KT 9999 FEW022 SCT032 TXM01/1615Z PROB30 1621/1624 4500 BR

Wetterbeobachtungen und Prognosen von mehr als 4000 Flughäfen (METAR und TAF Bericht).

Die verfügbaren Stationen werden durch gelbe und rote Markierungen auf der Karte dargestellt.

Führen Sie die Maus auf sie, um den Namen der Station zu sehen.

Darauf klicken, um die Beobachtung von Wetterbeobachtungen und Prognosen zu sehen.

Um die Karte zu ändern : klicken Sie auf den grünen Tasten mit einem schwarzen Kreuz Zum Vergrößern, auf den grünen Button mit einem Gedankenstrich zu verkleinern, oder auf die grünen Pfeile für benachbarte Karten.


METAR-TAF: